ADDS METAR Data INFO
IDs: Format: Raw Decoded Include TAF

Data at: 1715 UTC 23 Oct 2017

KWAL 231654Z 14010KT 10SM FEW035 SCT055 BKN250 23/20 A3016 RMK AO2 SLP210 T02280200
KWAL 231554Z 14009KT 10SM BKN050 BKN250 22/20 A3019 RMK AO2 SLP221 T02220200
KWAL 231454Z 14010KT 10SM SCT060 BKN250 23/20 A3022 RMK AO2 SLP228 T02330200 58010
KWAL 231354Z 15008KT 10SM SCT055 BKN250 22/21 A3024 RMK AO2 SLP235 T02170206
KWAL 231254Z 15007KT 10SM SCT055 BKN250 21/20 A3025 RMK AO2 SLP240 T02110200
KWAL 231154Z AUTO 16004KT 10SM BKN055 20/19 A3025 RMK AO2 SLP239 T02000194 10200 20183 58009
KWAL 231054Z AUTO 00000KT 10SM SCT045 OVC060 19/19 A3026 RMK AO2 SLP242 T01940194
KWAL 230954Z AUTO 15004KT 10SM BKN043 BKN060 19/19 A3027 RMK AO2 SLP246 T01940189
KWAL 230854Z AUTO 00000KT 10SM SCT047 BKN060 19/18 A3027 RMK AO2 SLP248 T01890183 57008
KWAL 230754Z AUTO 14003KT 10SM OVC055 19/19 A3028 RMK AO2 SLP250 T01940189
KWAL 230654Z AUTO 00000KT 10SM SCT050 18/18 A3029 RMK AO2 SLP254 T01830183
KWAL 230554Z AUTO 15004KT 10SM CLR 19/19 A3030 RMK AO2 SLP256 T01890189 10194 20172 56015
KWAL 230454Z AUTO 00000KT 10SM CLR 19/18 A3030 RMK AO2 SLP259 T01890183 402280100
KWAL 230354Z AUTO 10003KT 10SM FEW035 BKN047 19/19 A3032 RMK AO2 SLP265 T01940189
KWAL 230254Z AUTO 13003KT 10SM BKN033 OVC045 19/19 A3034 RMK AO2 SLP271 T01940189 58000
KWAL 230154Z AUTO 04003KT 10SM FEW031 OVC044 18/18 A3036 RMK AO2 SLP276 T01830183
KWAL 230054Z AUTO 00000KT 10SM BKN038 18/18 A3034 RMK AO2 SLP272 T01780178
KWAL 222354Z AUTO 00000KT 10SM CLR 18/18 A3034 RMK AO2 SLP271 T01780178 10222 20172 55000
KWAL 222254Z AUTO 14003KT 10SM CLR 18/18 A3034 RMK AO2 SLP270 T01830178
KWAL 222154Z AUTO 09005KT 10SM CLR 19/17 A3034 RMK AO2 SLP271 T01940167
KWAL 222054Z AUTO 11007KT 10SM CLR 21/17 A3034 RMK AO2 SLP271 T02110167 56008
KWAL 221954Z AUTO 14005KT 10SM CLR 22/17 A3035 RMK AO2 SLP274 T02170167
KWAL 221854Z AUTO 14007KT 10SM CLR 22/16 A3035 RMK AO2 SLP274 T02170161
KWAL 221754Z AUTO 14006KT 10SM CLR 22/15 A3036 RMK AO2 SLP279 T02220150 10228 20117 58015
KWAL 221654Z AUTO 15007KT 10SM CLR 22/14 A3038 RMK AO2 SLP285 T02220139
KWAL 221554Z AUTO 13008KT 10SM CLR 22/15 A3040 RMK AO2 SLP290 T02170150
KWAL 221454Z AUTO 10SM CLR 21/17 A3041 RMK AO2 SLP293 T02110167 50004
KWAL 221354Z AUTO 14004KT 10SM CLR 20/18 A3041 RMK AO2 SLP294 T02000178
KWAL 221254Z AUTO 00000KT 10SM CLR 16/15 A3041 RMK AO2 SLP294 T01560150
KWAL 221154Z AUTO 00000KT 9SM CLR 12/12 A3040 RMK AO2 SLP290 T01170117 10128 20100 51016
KWAL 221146Z AUTO 31003KT 3SM BR CLR 12/12 A3040 RMK AO2 T01170117
KWAL 221144Z AUTO 00000KT 2SM BR CLR 12/12 A3040 RMK AO2 T01170117
KWAL 221135Z AUTO 30003KT 1SM BR CLR 11/11 A3039 RMK AO2 T01060106
KWAL 221129Z AUTO 29004KT 2SM BR CLR 11/11 A3039 RMK AO2 T01060106
KWAL 221113Z AUTO 30003KT 8SM FEW002 10/10 A3039 RMK AO2 T01000100
KWAL 221106Z AUTO 00000KT 2 1/2SM BR FEW002 10/10 A3038 RMK AO2 T01000100 $
KWAL 221102Z AUTO 00000KT 1SM BR VV002 10/10 A3038 RMK AO2 T01000100 $
KWAL 221054Z AUTO 00000KT 1/2SM FG VV002 12/12 A3038 RMK AO2 SLP284 T01220122 $
KWAL 221046Z AUTO 00000KT 1SM BR CLR 13/13 A3038 RMK AO2 T01280128
KWAL 221042Z AUTO 00000KT 1/2SM FG CLR 13/13 A3038 RMK AO2 T01280128
KWAL 220954Z AUTO 00000KT 1/4SM FG VV003 12/12 A3037 RMK AO2 SLP281 T01220122
KWAL 220942Z AUTO 00000KT 1/2SM FG VV003 12/12 A3037 RMK AO2 T01220122
KWAL 220940Z AUTO 00000KT 1SM BR VV003 12/12 A3037 RMK AO2 T01220122
KWAL 220919Z AUTO 00000KT 5SM BR FEW003 12/12 A3036 RMK AO2 T01220117
KWAL 220912Z AUTO 00000KT 2 1/2SM BR FEW002 12/12 A3036 RMK AO2 VIS 3/4V5 T01220117
KWAL 220854Z AUTO 00000KT 9SM CLR 12/12 A3035 RMK AO2 SLP274 T01220122 55002
KWAL 220754Z AUTO 00000KT 10SM CLR 12/12 A3035 RMK AO2 SLP273 T01220122
KWAL 220654Z AUTO 00000KT 10SM CLR 13/13 A3035 RMK AO2 SLP273 T01280128
KWAL 220554Z AUTO 00000KT 10SM CLR 12/12 A3036 RMK AO2 SLP276 T01170117 10161 20117 56006